sensor_id;sensor_type;location;lat;lon;timestamp;temperature;humidity
14620;DHT22;32125;48.518;9.050;2023-08-20T00:01:04;22.50;99.90
14620;DHT22;32125;48.518;9.050;2023-08-20T00:03:30;22.50;99.90
14620;DHT22;32125;48.518;9.050;2023-08-20T00:05:56;22.50;99.90
14620;DHT22;32125;48.518;9.050;2023-08-20T00:08:21;22.50;99.90
14620;DHT22;32125;48.518;9.050;2023-08-20T00:10:47;22.40;99.90
14620;DHT22;32125;48.518;9.050;2023-08-20T00:13:15;22.40;99.90
14620;DHT22;32125;48.518;9.050;2023-08-20T00:18:11;22.30;99.90
14620;DHT22;32125;48.518;9.050;2023-08-20T00:20:44;22.30;99.90
14620;DHT22;32125;48.518;9.050;2023-08-20T00:23:12;22.30;99.90
14620;DHT22;32125;48.518;9.050;2023-08-20T00:25:38;22.30;99.90
14620;DHT22;32125;48.518;9.050;2023-08-20T00:28:04;22.20;99.90
14620;DHT22;32125;48.518;9.050;2023-08-20T00:30:32;22.20;99.90
14620;DHT22;32125;48.518;9.050;2023-08-20T00:33:00;22.10;99.90
14620;DHT22;32125;48.518;9.050;2023-08-20T00:35:25;22.10;99.90
14620;DHT22;32125;48.518;9.050;2023-08-20T00:37:51;22.10;99.90
14620;DHT22;32125;48.518;9.050;2023-08-20T00:40:19;22.10;99.90
14620;DHT22;32125;48.518;9.050;2023-08-20T00:42:47;22.10;99.90
14620;DHT22;32125;48.518;9.050;2023-08-20T00:45:13;22.00;99.90
14620;DHT22;32125;48.518;9.050;2023-08-20T00:47:41;22.00;99.90
14620;DHT22;32125;48.518;9.050;2023-08-20T00:50:09;22.00;99.90
14620;DHT22;32125;48.518;9.050;2023-08-20T00:52:37;21.90;99.90
14620;DHT22;32125;48.518;9.050;2023-08-20T00:55:12;21.90;99.90
14620;DHT22;32125;48.518;9.050;2023-08-20T00:57:41;21.80;99.90
14620;DHT22;32125;48.518;9.050;2023-08-20T01:00:09;21.80;99.90
14620;DHT22;32125;48.518;9.050;2023-08-20T01:02:39;21.80;99.90
14620;DHT22;32125;48.518;9.050;2023-08-20T01:05:07;21.80;99.90
14620;DHT22;32125;48.518;9.050;2023-08-20T01:12:39;21.70;99.90
14620;DHT22;32125;48.518;9.050;2023-08-20T01:15:05;21.70;99.90
14620;DHT22;32125;48.518;9.050;2023-08-20T01:17:33;21.70;99.90
14620;DHT22;32125;48.518;9.050;2023-08-20T01:20:02;21.70;99.90
14620;DHT22;32125;48.518;9.050;2023-08-20T01:25:24;21.60;99.90
14620;DHT22;32125;48.518;9.050;2023-08-20T01:30:26;21.60;99.90
14620;DHT22;32125;48.518;9.050;2023-08-20T01:32:58;21.50;99.90
14620;DHT22;32125;48.518;9.050;2023-08-20T01:35:24;21.60;99.90
14620;DHT22;32125;48.518;9.050;2023-08-20T01:37:51;21.60;99.90
14620;DHT22;32125;48.518;9.050;2023-08-20T01:40:17;21.50;99.90
14620;DHT22;32125;48.518;9.050;2023-08-20T01:45:09;21.50;99.90
14620;DHT22;32125;48.518;9.050;2023-08-20T01:47:36;21.40;99.90
14620;DHT22;32125;48.518;9.050;2023-08-20T01:50:02;21.40;99.90
14620;DHT22;32125;48.518;9.050;2023-08-20T01:52:28;21.40;99.90
14620;DHT22;32125;48.518;9.050;2023-08-20T01:54:55;21.30;99.90
14620;DHT22;32125;48.518;9.050;2023-08-20T01:57:20;21.40;99.90
14620;DHT22;32125;48.518;9.050;2023-08-20T01:59:47;21.30;99.90
14620;DHT22;32125;48.518;9.050;2023-08-20T02:02:13;21.30;99.90
14620;DHT22;32125;48.518;9.050;2023-08-20T02:04:39;21.20;99.90
14620;DHT22;32125;48.518;9.050;2023-08-20T02:07:04;21.30;99.90
14620;DHT22;32125;48.518;9.050;2023-08-20T02:14:22;21.20;99.90
14620;DHT22;32125;48.518;9.050;2023-08-20T02:16:48;21.20;99.90
14620;DHT22;32125;48.518;9.050;2023-08-20T02:19:13;21.20;99.90
14620;DHT22;32125;48.518;9.050;2023-08-20T02:24:06;21.10;99.90
14620;DHT22;32125;48.518;9.050;2023-08-20T02:26:32;21.10;99.90
14620;DHT22;32125;48.518;9.050;2023-08-20T02:31:28;21.10;99.90
14620;DHT22;32125;48.518;9.050;2023-08-20T02:33:53;21.10;99.90
14620;DHT22;32125;48.518;9.050;2023-08-20T02:36:19;21.00;99.90
14620;DHT22;32125;48.518;9.050;2023-08-20T02:43:39;21.00;99.90
14620;DHT22;32125;48.518;9.050;2023-08-20T02:46:08;21.00;99.90
14620;DHT22;32125;48.518;9.050;2023-08-20T02:48:34;21.00;99.90
14620;DHT22;32125;48.518;9.050;2023-08-20T02:50:59;21.00;99.90
14620;DHT22;32125;48.518;9.050;2023-08-20T02:53:27;21.00;99.90
14620;DHT22;32125;48.518;9.050;2023-08-20T02:55:53;20.90;99.90
14620;DHT22;32125;48.518;9.050;2023-08-20T02:58:21;20.90;99.90
14620;DHT22;32125;48.518;9.050;2023-08-20T03:00:47;20.90;99.90
14620;DHT22;32125;48.518;9.050;2023-08-20T03:03:15;20.90;99.90
14620;DHT22;32125;48.518;9.050;2023-08-20T03:05:44;20.90;99.90
14620;DHT22;32125;48.518;9.050;2023-08-20T03:10:36;20.80;99.90
14620;DHT22;32125;48.518;9.050;2023-08-20T03:13:08;20.80;99.90
14620;DHT22;32125;48.518;9.050;2023-08-20T03:15:34;20.80;99.90
14620;DHT22;32125;48.518;9.050;2023-08-20T03:18:04;20.80;99.90
14620;DHT22;32125;48.518;9.050;2023-08-20T03:20:30;20.80;99.90
14620;DHT22;32125;48.518;9.050;2023-08-20T03:25:28;20.70;99.90
14620;DHT22;32125;48.518;9.050;2023-08-20T03:27:53;20.70;99.90
14620;DHT22;32125;48.518;9.050;2023-08-20T03:30:21;20.70;99.90
14620;DHT22;32125;48.518;9.050;2023-08-20T03:32:47;20.60;99.90
14620;DHT22;32125;48.518;9.050;2023-08-20T03:35:13;20.60;99.90
14620;DHT22;32125;48.518;9.050;2023-08-20T03:37:41;20.60;99.90
14620;DHT22;32125;48.518;9.050;2023-08-20T03:40:07;20.60;99.90
14620;DHT22;32125;48.518;9.050;2023-08-20T03:42:37;20.50;99.90
14620;DHT22;32125;48.518;9.050;2023-08-20T03:47:31;20.50;99.90
14620;DHT22;32125;48.518;9.050;2023-08-20T03:49:57;20.40;99.90
14620;DHT22;32125;48.518;9.050;2023-08-20T03:52:23;20.40;99.90
14620;DHT22;32125;48.518;9.050;2023-08-20T03:54:48;20.40;99.90
14620;DHT22;32125;48.518;9.050;2023-08-20T03:57:16;20.40;99.90
14620;DHT22;32125;48.518;9.050;2023-08-20T03:59:44;20.40;99.90
14620;DHT22;32125;48.518;9.050;2023-08-20T04:02:13;20.40;99.90
14620;DHT22;32125;48.518;9.050;2023-08-20T04:07:07;20.40;99.90
14620;DHT22;32125;48.518;9.050;2023-08-20T04:09:37;20.30;99.90
14620;DHT22;32125;48.518;9.050;2023-08-20T04:12:06;20.30;99.90
14620;DHT22;32125;48.518;9.050;2023-08-20T04:17:02;20.30;99.90
14620;DHT22;32125;48.518;9.050;2023-08-20T04:19:27;20.30;99.90
14620;DHT22;32125;48.518;9.050;2023-08-20T04:21:56;20.30;99.90
14620;DHT22;32125;48.518;9.050;2023-08-20T04:26:52;20.30;99.90
14620;DHT22;32125;48.518;9.050;2023-08-20T04:29:17;20.30;99.90
14620;DHT22;32125;48.518;9.050;2023-08-20T04:31:43;20.30;99.90
14620;DHT22;32125;48.518;9.050;2023-08-20T04:34:12;20.30;99.90
14620;DHT22;32125;48.518;9.050;2023-08-20T04:36:37;20.20;99.90
14620;DHT22;32125;48.518;9.050;2023-08-20T04:41:32;20.20;99.90
14620;DHT22;32125;48.518;9.050;2023-08-20T04:43:58;20.10;99.90
14620;DHT22;32125;48.518;9.050;2023-08-20T04:46:26;20.10;99.90
14620;DHT22;32125;48.518;9.050;2023-08-20T04:48:54;20.10;99.90
14620;DHT22;32125;48.518;9.050;2023-08-20T04:53:45;20.00;99.90
14620;DHT22;32125;48.518;9.050;2023-08-20T04:56:15;20.00;99.90
14620;DHT22;32125;48.518;9.050;2023-08-20T05:01:10;20.10;99.90
14620;DHT22;32125;48.518;9.050;2023-08-20T05:03:35;20.10;99.90
14620;DHT22;32125;48.518;9.050;2023-08-20T05:06:01;20.10;99.90
14620;DHT22;32125;48.518;9.050;2023-08-20T05:08:28;20.10;99.90
14620;DHT22;32125;48.518;9.050;2023-08-20T05:15:54;20.10;99.90
14620;DHT22;32125;48.518;9.050;2023-08-20T05:18:22;20.20;99.90
14620;DHT22;32125;48.518;9.050;2023-08-20T05:23:21;20.10;99.90
14620;DHT22;32125;48.518;9.050;2023-08-20T05:25:47;20.00;99.90
14620;DHT22;32125;48.518;9.050;2023-08-20T05:28:13;20.10;99.90
14620;DHT22;32125;48.518;9.050;2023-08-20T05:30:38;20.10;99.90
14620;DHT22;32125;48.518;9.050;2023-08-20T05:33:06;20.10;99.90
14620;DHT22;32125;48.518;9.050;2023-08-20T05:40:27;20.10;99.90
14620;DHT22;32125;48.518;9.050;2023-08-20T05:45:18;20.10;99.90
14620;DHT22;32125;48.518;9.050;2023-08-20T05:47:44;20.20;99.90
14620;DHT22;32125;48.518;9.050;2023-08-20T05:50:10;20.20;99.90
14620;DHT22;32125;48.518;9.050;2023-08-20T05:52:35;20.20;99.90
14620;DHT22;32125;48.518;9.050;2023-08-20T05:55:06;20.20;99.90
14620;DHT22;32125;48.518;9.050;2023-08-20T05:57:36;20.30;99.90
14620;DHT22;32125;48.518;9.050;2023-08-20T06:00:05;20.30;99.90
14620;DHT22;32125;48.518;9.050;2023-08-20T06:02:32;20.40;99.90
14620;DHT22;32125;48.518;9.050;2023-08-20T06:05:02;20.50;99.90
14620;DHT22;32125;48.518;9.050;2023-08-20T06:07:33;20.50;99.90
14620;DHT22;32125;48.518;9.050;2023-08-20T06:12:25;20.60;99.90
14620;DHT22;32125;48.518;9.050;2023-08-20T06:14:53;20.70;99.90
14620;DHT22;32125;48.518;9.050;2023-08-20T06:17:18;20.70;99.90
14620;DHT22;32125;48.518;9.050;2023-08-20T06:19:44;20.90;99.90
14620;DHT22;32125;48.518;9.050;2023-08-20T06:24:38;21.10;99.90
14620;DHT22;32125;48.518;9.050;2023-08-20T06:27:06;21.20;99.90
14620;DHT22;32125;48.518;9.050;2023-08-20T06:29:32;21.30;99.90
14620;DHT22;32125;48.518;9.050;2023-08-20T06:31:57;21.50;99.90
14620;DHT22;32125;48.518;9.050;2023-08-20T06:34:25;21.80;99.90
14620;DHT22;32125;48.518;9.050;2023-08-20T06:36:54;22.00;99.90
14620;DHT22;32125;48.518;9.050;2023-08-20T06:39:19;22.30;99.90
14620;DHT22;32125;48.518;9.050;2023-08-20T06:41:45;22.60;99.90
14620;DHT22;32125;48.518;9.050;2023-08-20T06:44:11;22.90;99.90
14620;DHT22;32125;48.518;9.050;2023-08-20T06:49:05;23.40;99.90
14620;DHT22;32125;48.518;9.050;2023-08-20T06:51:32;23.60;99.90
14620;DHT22;32125;48.518;9.050;2023-08-20T06:53:58;23.90;99.90
14620;DHT22;32125;48.518;9.050;2023-08-20T06:56:24;24.10;99.90
14620;DHT22;32125;48.518;9.050;2023-08-20T06:58:52;24.40;99.90
14620;DHT22;32125;48.518;9.050;2023-08-20T07:01:17;24.70;99.90
14620;DHT22;32125;48.518;9.050;2023-08-20T07:03:43;24.90;99.90
14620;DHT22;32125;48.518;9.050;2023-08-20T07:06:10;25.10;99.90
14620;DHT22;32125;48.518;9.050;2023-08-20T07:11:07;25.40;99.90
14620;DHT22;32125;48.518;9.050;2023-08-20T07:13:32;25.60;99.90
14620;DHT22;32125;48.518;9.050;2023-08-20T07:15:58;25.70;99.90
14620;DHT22;32125;48.518;9.050;2023-08-20T07:18:23;25.90;99.90
14620;DHT22;32125;48.518;9.050;2023-08-20T07:20:52;26.10;99.90
14620;DHT22;32125;48.518;9.050;2023-08-20T07:23:20;26.20;99.90
14620;DHT22;32125;48.518;9.050;2023-08-20T07:25:45;26.40;99.90
14620;DHT22;32125;48.518;9.050;2023-08-20T07:28:12;26.60;99.90
14620;DHT22;32125;48.518;9.050;2023-08-20T07:30:38;26.70;99.90
14620;DHT22;32125;48.518;9.050;2023-08-20T07:33:05;26.80;99.90
14620;DHT22;32125;48.518;9.050;2023-08-20T07:40:23;27.50;99.90
14620;DHT22;32125;48.518;9.050;2023-08-20T07:42:49;27.70;99.90
14620;DHT22;32125;48.518;9.050;2023-08-20T07:45:17;28.00;99.90
14620;DHT22;32125;48.518;9.050;2023-08-20T07:50:08;28.50;99.90
14620;DHT22;32125;48.518;9.050;2023-08-20T07:52:34;28.80;99.90
14620;DHT22;32125;48.518;9.050;2023-08-20T07:55:00;28.90;99.90
14620;DHT22;32125;48.518;9.050;2023-08-20T07:57:26;28.90;99.90
14620;DHT22;32125;48.518;9.050;2023-08-20T08:04:48;29.30;99.90
14620;DHT22;32125;48.518;9.050;2023-08-20T08:07:14;29.50;99.90
14620;DHT22;32125;48.518;9.050;2023-08-20T08:09:39;29.60;99.90
14620;DHT22;32125;48.518;9.050;2023-08-20T08:12:05;29.80;99.90
14620;DHT22;32125;48.518;9.050;2023-08-20T08:14:33;29.90;99.90
14620;DHT22;32125;48.518;9.050;2023-08-20T08:17:01;30.00;99.90
14620;DHT22;32125;48.518;9.050;2023-08-20T08:19:32;30.20;99.90
14620;DHT22;32125;48.518;9.050;2023-08-20T08:22:00;30.30;99.90
14620;DHT22;32125;48.518;9.050;2023-08-20T08:24:25;30.40;99.90
14620;DHT22;32125;48.518;9.050;2023-08-20T08:26:51;30.50;99.90
14620;DHT22;32125;48.518;9.050;2023-08-20T08:29:17;30.50;99.90
14620;DHT22;32125;48.518;9.050;2023-08-20T08:31:42;30.60;99.90
14620;DHT22;32125;48.518;9.050;2023-08-20T08:39:00;30.90;99.90
14620;DHT22;32125;48.518;9.050;2023-08-20T08:41:28;31.00;99.90
14620;DHT22;32125;48.518;9.050;2023-08-20T08:43:58;31.20;99.90
14620;DHT22;32125;48.518;9.050;2023-08-20T08:46:25;31.20;99.90
14620;DHT22;32125;48.518;9.050;2023-08-20T08:48:57;31.30;99.90
14620;DHT22;32125;48.518;9.050;2023-08-20T08:51:25;31.20;99.90
14620;DHT22;32125;48.518;9.050;2023-08-20T08:53:52;31.30;99.90
14620;DHT22;32125;48.518;9.050;2023-08-20T08:56:18;31.50;99.90
14620;DHT22;32125;48.518;9.050;2023-08-20T08:58:44;31.50;99.90
14620;DHT22;32125;48.518;9.050;2023-08-20T09:01:10;31.70;99.90
14620;DHT22;32125;48.518;9.050;2023-08-20T09:03:35;31.80;99.90
14620;DHT22;32125;48.518;9.050;2023-08-20T09:11:00;31.90;99.90
14620;DHT22;32125;48.518;9.050;2023-08-20T09:13:33;32.00;99.90
14620;DHT22;32125;48.518;9.050;2023-08-20T09:15:59;32.20;99.90
14620;DHT22;32125;48.518;9.050;2023-08-20T09:18:25;32.30;99.90
14620;DHT22;32125;48.518;9.050;2023-08-20T09:25:45;32.60;99.90
14620;DHT22;32125;48.518;9.050;2023-08-20T09:28:14;32.70;99.90
14620;DHT22;32125;48.518;9.050;2023-08-20T09:30:39;32.80;99.90
14620;DHT22;32125;48.518;9.050;2023-08-20T09:33:13;33.10;99.90
14620;DHT22;32125;48.518;9.050;2023-08-20T09:35:51;33.30;99.90
14620;DHT22;32125;48.518;9.050;2023-08-20T09:38:20;33.30;99.90
14620;DHT22;32125;48.518;9.050;2023-08-20T09:43:18;33.40;99.90
14620;DHT22;32125;48.518;9.050;2023-08-20T09:45:47;33.50;99.90
14620;DHT22;32125;48.518;9.050;2023-08-20T09:48:18;33.70;99.90
14620;DHT22;32125;48.518;9.050;2023-08-20T09:50:47;33.80;99.90
14620;DHT22;32125;48.518;9.050;2023-08-20T09:55:47;34.10;99.90
14620;DHT22;32125;48.518;9.050;2023-08-20T09:58:15;34.20;99.90
14620;DHT22;32125;48.518;9.050;2023-08-20T10:00:42;34.40;99.90
14620;DHT22;32125;48.518;9.050;2023-08-20T10:03:10;34.50;99.90
14620;DHT22;32125;48.518;9.050;2023-08-20T10:05:39;34.60;99.90
14620;DHT22;32125;48.518;9.050;2023-08-20T10:08:06;34.70;99.90
14620;DHT22;32125;48.518;9.050;2023-08-20T10:10:32;34.80;99.90
14620;DHT22;32125;48.518;9.050;2023-08-20T10:12:59;34.90;99.90
14620;DHT22;32125;48.518;9.050;2023-08-20T10:15:25;34.90;99.90
14620;DHT22;32125;48.518;9.050;2023-08-20T10:17:54;34.90;99.90
14620;DHT22;32125;48.518;9.050;2023-08-20T10:20:22;35.00;99.90
14620;DHT22;32125;48.518;9.050;2023-08-20T10:22:50;35.20;99.90
14620;DHT22;32125;48.518;9.050;2023-08-20T10:25:26;35.20;99.90
14620;DHT22;32125;48.518;9.050;2023-08-20T10:28:10;35.20;99.90
14620;DHT22;32125;48.518;9.050;2023-08-20T10:30:36;35.20;99.90
14620;DHT22;32125;48.518;9.050;2023-08-20T10:35:49;35.30;99.90
14620;DHT22;32125;48.518;9.050;2023-08-20T10:38:16;35.50;99.90
14620;DHT22;32125;48.518;9.050;2023-08-20T11:01:46;35.70;99.60
14620;DHT22;32125;48.518;9.050;2023-08-20T11:04:16;35.70;99.10
14620;DHT22;32125;48.518;9.050;2023-08-20T11:06:46;35.80;99.80
14620;DHT22;32125;48.518;9.050;2023-08-20T11:09:15;35.50;99.50
14620;DHT22;32125;48.518;9.050;2023-08-20T11:11:41;36.00;99.00
14620;DHT22;32125;48.518;9.050;2023-08-20T11:14:12;36.00;98.80
14620;DHT22;32125;48.518;9.050;2023-08-20T11:16:40;35.80;98.20
14620;DHT22;32125;48.518;9.050;2023-08-20T11:19:05;35.80;98.20
14620;DHT22;32125;48.518;9.050;2023-08-20T11:24:01;35.90;99.90
14620;DHT22;32125;48.518;9.050;2023-08-20T11:28:53;36.10;98.50
14620;DHT22;32125;48.518;9.050;2023-08-20T11:31:19;36.00;97.40
14620;DHT22;32125;48.518;9.050;2023-08-20T11:36:15;36.00;98.00
14620;DHT22;32125;48.518;9.050;2023-08-20T11:41:11;35.70;96.80
14620;DHT22;32125;48.518;9.050;2023-08-20T11:43:37;35.80;98.10
14620;DHT22;32125;48.518;9.050;2023-08-20T11:46:03;35.70;98.10
14620;DHT22;32125;48.518;9.050;2023-08-20T11:48:29;35.80;98.10
14620;DHT22;32125;48.518;9.050;2023-08-20T11:50:57;35.90;98.50
14620;DHT22;32125;48.518;9.050;2023-08-20T11:53:28;36.00;97.70
14620;DHT22;32125;48.518;9.050;2023-08-20T11:55:56;35.90;97.20
14620;DHT22;32125;48.518;9.050;2023-08-20T11:58:28;35.80;97.20
14620;DHT22;32125;48.518;9.050;2023-08-20T12:00:56;35.80;96.90
14620;DHT22;32125;48.518;9.050;2023-08-20T12:03:29;35.60;97.10
14620;DHT22;32125;48.518;9.050;2023-08-20T12:05:56;35.60;97.10
14620;DHT22;32125;48.518;9.050;2023-08-20T12:10:50;35.80;97.00
14620;DHT22;32125;48.518;9.050;2023-08-20T12:13:15;35.90;96.80
14620;DHT22;32125;48.518;9.050;2023-08-20T12:18:12;36.00;96.30
14620;DHT22;32125;48.518;9.050;2023-08-20T12:20:37;35.90;95.20
14620;DHT22;32125;48.518;9.050;2023-08-20T12:25:34;35.90;95.50
14620;DHT22;32125;48.518;9.050;2023-08-20T12:28:01;35.80;95.10
14620;DHT22;32125;48.518;9.050;2023-08-20T12:32:54;35.70;96.00
14620;DHT22;32125;48.518;9.050;2023-08-20T12:37:53;35.90;96.90
14620;DHT22;32125;48.518;9.050;2023-08-20T12:40:18;35.80;95.50
14620;DHT22;32125;48.518;9.050;2023-08-20T12:42:49;35.80;95.70
14620;DHT22;32125;48.518;9.050;2023-08-20T12:47:42;35.90;96.80
14620;DHT22;32125;48.518;9.050;2023-08-20T12:50:10;35.80;95.30
14620;DHT22;32125;48.518;9.050;2023-08-20T12:52:36;35.80;95.50
14620;DHT22;32125;48.518;9.050;2023-08-20T12:55:04;35.80;95.10
14620;DHT22;32125;48.518;9.050;2023-08-20T12:57:34;35.80;96.10
14620;DHT22;32125;48.518;9.050;2023-08-20T13:02:27;35.80;95.00
14620;DHT22;32125;48.518;9.050;2023-08-20T13:04:55;35.80;94.60
14620;DHT22;32125;48.518;9.050;2023-08-20T13:07:26;35.70;95.40
14620;DHT22;32125;48.518;9.050;2023-08-20T13:09:52;35.70;96.10
14620;DHT22;32125;48.518;9.050;2023-08-20T13:17:11;35.70;96.20
14620;DHT22;32125;48.518;9.050;2023-08-20T13:26:57;35.40;96.30
14620;DHT22;32125;48.518;9.050;2023-08-20T13:29:23;35.40;95.10
14620;DHT22;32125;48.518;9.050;2023-08-20T13:34:14;35.10;96.50
14620;DHT22;32125;48.518;9.050;2023-08-20T13:36:42;34.90;95.50
14620;DHT22;32125;48.518;9.050;2023-08-20T13:39:08;34.80;96.10
14620;DHT22;32125;48.518;9.050;2023-08-20T13:41:33;34.60;96.40
14620;DHT22;32125;48.518;9.050;2023-08-20T13:46:25;34.30;97.90
14620;DHT22;32125;48.518;9.050;2023-08-20T13:53:45;34.20;97.60
14620;DHT22;32125;48.518;9.050;2023-08-20T13:56:15;34.10;98.30
14620;DHT22;32125;48.518;9.050;2023-08-20T13:58:41;34.00;97.70
14620;DHT22;32125;48.518;9.050;2023-08-20T14:01:09;33.80;98.00
14620;DHT22;32125;48.518;9.050;2023-08-20T14:08:29;33.70;97.80
14620;DHT22;32125;48.518;9.050;2023-08-20T14:10:57;33.80;98.60
14620;DHT22;32125;48.518;9.050;2023-08-20T14:13:22;33.80;97.80
14620;DHT22;32125;48.518;9.050;2023-08-20T14:18:19;33.70;98.60
14620;DHT22;32125;48.518;9.050;2023-08-20T14:23:13;33.70;97.50
14620;DHT22;32125;48.518;9.050;2023-08-20T14:28:08;33.70;97.80
14620;DHT22;32125;48.518;9.050;2023-08-20T14:30:38;33.60;98.60
14620;DHT22;32125;48.518;9.050;2023-08-20T14:38:03;33.50;97.90
14620;DHT22;32125;48.518;9.050;2023-08-20T14:40:28;33.40;98.30
14620;DHT22;32125;48.518;9.050;2023-08-20T14:47:51;33.40;98.20
14620;DHT22;32125;48.518;9.050;2023-08-20T14:50:22;33.30;98.30
14620;DHT22;32125;48.518;9.050;2023-08-20T15:00:14;33.00;99.40
14620;DHT22;32125;48.518;9.050;2023-08-20T15:02:45;33.00;99.80
14620;DHT22;32125;48.518;9.050;2023-08-20T15:07:37;32.80;99.40
14620;DHT22;32125;48.518;9.050;2023-08-20T15:10:03;32.90;99.50
14620;DHT22;32125;48.518;9.050;2023-08-20T15:12:33;32.80;99.80
14620;DHT22;32125;48.518;9.050;2023-08-20T15:17:25;32.60;99.80
14620;DHT22;32125;48.518;9.050;2023-08-20T15:22:19;32.50;99.90
14620;DHT22;32125;48.518;9.050;2023-08-20T15:29:40;32.30;99.90
14620;DHT22;32125;48.518;9.050;2023-08-20T15:32:05;32.20;99.90
14620;DHT22;32125;48.518;9.050;2023-08-20T15:34:34;32.10;99.90
14620;DHT22;32125;48.518;9.050;2023-08-20T15:36:59;32.00;99.90
14620;DHT22;32125;48.518;9.050;2023-08-20T15:39:28;31.90;99.90
14620;DHT22;32125;48.518;9.050;2023-08-20T15:41:53;31.90;99.90
14620;DHT22;32125;48.518;9.050;2023-08-20T15:46:47;31.90;99.90
14620;DHT22;32125;48.518;9.050;2023-08-20T15:49:13;31.90;99.90
14620;DHT22;32125;48.518;9.050;2023-08-20T15:54:05;32.00;99.90
14620;DHT22;32125;48.518;9.050;2023-08-20T16:01:23;32.00;99.90
14620;DHT22;32125;48.518;9.050;2023-08-20T16:03:52;32.00;99.90
14620;DHT22;32125;48.518;9.050;2023-08-20T16:08:44;32.00;99.90
14620;DHT22;32125;48.518;9.050;2023-08-20T16:11:10;32.00;99.90
14620;DHT22;32125;48.518;9.050;2023-08-20T16:23:24;31.90;99.90
14620;DHT22;32125;48.518;9.050;2023-08-20T16:25:51;31.90;99.90
14620;DHT22;32125;48.518;9.050;2023-08-20T16:30:43;31.80;99.90
14620;DHT22;32125;48.518;9.050;2023-08-20T16:35:40;31.60;99.90
14620;DHT22;32125;48.518;9.050;2023-08-20T16:38:08;31.50;99.90
14620;DHT22;32125;48.518;9.050;2023-08-20T16:43:01;31.20;99.90
14620;DHT22;32125;48.518;9.050;2023-08-20T16:45:27;31.20;99.90
14620;DHT22;32125;48.518;9.050;2023-08-20T16:47:53;31.10;99.90
14620;DHT22;32125;48.518;9.050;2023-08-20T16:50:21;31.10;99.90
14620;DHT22;32125;48.518;9.050;2023-08-20T16:52:49;31.00;99.90
14620;DHT22;32125;48.518;9.050;2023-08-20T16:55:17;30.90;99.90
14620;DHT22;32125;48.518;9.050;2023-08-20T16:57:42;30.80;99.90
14620;DHT22;32125;48.518;9.050;2023-08-20T17:00:11;30.80;99.90
14620;DHT22;32125;48.518;9.050;2023-08-20T17:02:37;30.70;99.90
14620;DHT22;32125;48.518;9.050;2023-08-20T17:05:05;30.70;99.90
14620;DHT22;32125;48.518;9.050;2023-08-20T17:07:30;30.60;99.90
14620;DHT22;32125;48.518;9.050;2023-08-20T17:09:57;30.50;99.90
14620;DHT22;32125;48.518;9.050;2023-08-20T17:12:27;30.50;99.90
14620;DHT22;32125;48.518;9.050;2023-08-20T17:14:58;30.40;99.90
14620;DHT22;32125;48.518;9.050;2023-08-20T17:19:57;30.40;99.90
14620;DHT22;32125;48.518;9.050;2023-08-20T17:22:25;30.40;99.90
14620;DHT22;32125;48.518;9.050;2023-08-20T17:24:50;30.30;99.90
14620;DHT22;32125;48.518;9.050;2023-08-20T17:27:18;30.30;99.90
14620;DHT22;32125;48.518;9.050;2023-08-20T17:29:46;30.20;99.90
14620;DHT22;32125;48.518;9.050;2023-08-20T17:32:12;30.20;99.90
14620;DHT22;32125;48.518;9.050;2023-08-20T17:34:40;30.20;99.90
14620;DHT22;32125;48.518;9.050;2023-08-20T17:37:06;30.10;99.90
14620;DHT22;32125;48.518;9.050;2023-08-20T17:39:32;30.10;99.90
14620;DHT22;32125;48.518;9.050;2023-08-20T17:44:23;30.00;99.90
14620;DHT22;32125;48.518;9.050;2023-08-20T17:46:49;30.00;99.90
14620;DHT22;32125;48.518;9.050;2023-08-20T17:51:44;29.90;99.90
14620;DHT22;32125;48.518;9.050;2023-08-20T18:01:33;29.80;99.90
14620;DHT22;32125;48.518;9.050;2023-08-20T18:04:01;29.70;99.90
14620;DHT22;32125;48.518;9.050;2023-08-20T18:06:26;29.70;99.90
14620;DHT22;32125;48.518;9.050;2023-08-20T18:11:20;29.70;99.90
14620;DHT22;32125;48.518;9.050;2023-08-20T18:13:48;29.60;99.90
14620;DHT22;32125;48.518;9.050;2023-08-20T18:16:14;29.60;99.90
14620;DHT22;32125;48.518;9.050;2023-08-20T18:18:39;29.50;99.90
14620;DHT22;32125;48.518;9.050;2023-08-20T18:21:05;29.40;99.90
14620;DHT22;32125;48.518;9.050;2023-08-20T18:23:30;29.40;99.90
14620;DHT22;32125;48.518;9.050;2023-08-20T18:25:57;29.30;99.90
14620;DHT22;32125;48.518;9.050;2023-08-20T18:30:52;29.20;99.90
14620;DHT22;32125;48.518;9.050;2023-08-20T18:33:21;29.20;99.90
14620;DHT22;32125;48.518;9.050;2023-08-20T18:35:47;29.00;99.90
14620;DHT22;32125;48.518;9.050;2023-08-20T18:38:41;29.00;99.90
14620;DHT22;32125;48.518;9.050;2023-08-20T18:41:08;29.00;99.90
14620;DHT22;32125;48.518;9.050;2023-08-20T19:08:13;28.30;99.90
14620;DHT22;32125;48.518;9.050;2023-08-20T19:10:39;28.30;99.90
14620;DHT22;32125;48.518;9.050;2023-08-20T19:15:49;28.20;99.90
14620;DHT22;32125;48.518;9.050;2023-08-20T19:20:53;28.10;99.90
14620;DHT22;32125;48.518;9.050;2023-08-20T19:23:19;28.00;99.90
14620;DHT22;32125;48.518;9.050;2023-08-20T19:38:12;27.60;99.90
14620;DHT22;32125;48.518;9.050;2023-08-20T19:40:38;27.60;99.90
14620;DHT22;32125;48.518;9.050;2023-08-20T19:48:00;27.40;99.90
14620;DHT22;32125;48.518;9.050;2023-08-20T19:50:27;27.40;99.90
14620;DHT22;32125;48.518;9.050;2023-08-20T19:52:56;27.30;99.90
14620;DHT22;32125;48.518;9.050;2023-08-20T19:57:51;27.20;99.90
14620;DHT22;32125;48.518;9.050;2023-08-20T20:02:45;27.20;99.90
14620;DHT22;32125;48.518;9.050;2023-08-20T20:05:15;27.10;99.90
14620;DHT22;32125;48.518;9.050;2023-08-20T20:10:09;27.00;99.90
14620;DHT22;32125;48.518;9.050;2023-08-20T20:12:35;27.00;99.90
14620;DHT22;32125;48.518;9.050;2023-08-20T20:15:04;27.00;99.90
14620;DHT22;32125;48.518;9.050;2023-08-20T20:17:30;26.90;99.90
14620;DHT22;32125;48.518;9.050;2023-08-20T20:22:23;26.80;99.90
14620;DHT22;32125;48.518;9.050;2023-08-20T20:24:54;26.70;99.90
14620;DHT22;32125;48.518;9.050;2023-08-20T20:27:22;26.70;99.90
14620;DHT22;32125;48.518;9.050;2023-08-20T20:29:50;26.60;99.90
14620;DHT22;32125;48.518;9.050;2023-08-20T20:32:15;26.60;99.90
14620;DHT22;32125;48.518;9.050;2023-08-20T20:34:41;26.60;99.90
14620;DHT22;32125;48.518;9.050;2023-08-20T20:37:07;26.50;99.90
14620;DHT22;32125;48.518;9.050;2023-08-20T20:39:33;26.40;99.90
14620;DHT22;32125;48.518;9.050;2023-08-20T20:41:59;26.40;99.90
14620;DHT22;32125;48.518;9.050;2023-08-20T20:56:38;26.20;99.90
14620;DHT22;32125;48.518;9.050;2023-08-20T20:59:06;26.20;99.90
14620;DHT22;32125;48.518;9.050;2023-08-20T21:08:52;26.00;99.90
14620;DHT22;32125;48.518;9.050;2023-08-20T21:13:44;26.00;99.90
14620;DHT22;32125;48.518;9.050;2023-08-20T21:16:12;25.90;99.90
14620;DHT22;32125;48.518;9.050;2023-08-20T21:18:40;25.90;99.90
14620;DHT22;32125;48.518;9.050;2023-08-20T21:21:09;25.90;99.90